Gardena, California
Current Conditions -  °F | °C
As of 9:53 PM on Saturday 22 Nov 2014 (Local Time) from KHHR Reporting Station
Clear Clear  
Wind Chill: 63°   Ceiling: Unl
Heat Index: 63°   Visibility: 10mi
Dew Point: 54°   Wind: 0mph
Humidity: 72%   Direction: NA
Pressure: 30.04"   Gusts: NA
Location:  33.88°N, 118.3°W
Report Text: KHHR 230553Z AUTO 00000KT 10SM CLR 17/12 A3004 RMK AO2 SLP171 T01720122 10206 20172 50009
Loading
Personal Weather Stations






























Interactive Weather Map New forecast layout! Learn more

10-Day Weather Forecast

Advertisements
Track Severe Weather on mobile